createdAt,value
2022-08-26T00:02:02.057Z,21.30
2022-08-26T00:04:32.498Z,18.30
2022-08-26T00:07:02.668Z,14.50
2022-08-26T00:09:38.912Z,17.00
2022-08-26T00:12:17.505Z,18.40
2022-08-26T00:19:49.102Z,24.80
2022-08-26T00:22:31.355Z,28.60
2022-08-26T00:25:10.559Z,26.80
2022-08-26T00:27:40.108Z,32.70
2022-08-26T00:30:13.637Z,19.90
2022-08-26T00:32:50.352Z,23.00
2022-08-26T00:35:26.085Z,19.10
2022-08-26T00:38:11.117Z,20.40
2022-08-26T00:41:01.573Z,19.00
2022-08-26T00:43:46.160Z,19.60
2022-08-26T00:46:48.732Z,22.30
2022-08-26T00:49:47.954Z,18.20
2022-08-26T00:52:20.138Z,21.60
2022-08-26T00:55:20.517Z,23.60
2022-08-26T00:58:11.502Z,23.20
2022-08-26T01:00:45.243Z,22.00
2022-08-26T01:03:20.269Z,21.90
2022-08-26T01:05:51.192Z,26.50
2022-08-26T01:08:23.438Z,25.00
2022-08-26T01:10:56.418Z,22.70
2022-08-26T01:13:26.547Z,24.40
2022-08-26T01:15:59.383Z,18.90
2022-08-26T01:18:29.430Z,21.80
2022-08-26T01:21:40.545Z,19.00
2022-08-26T01:24:10.712Z,22.10
2022-08-26T01:26:43.349Z,19.50
2022-08-26T01:29:16.366Z,20.10
2022-08-26T01:31:50.283Z,21.00
2022-08-26T01:34:31.191Z,18.50
2022-08-26T01:37:08.007Z,17.70
2022-08-26T01:39:43.079Z,16.70
2022-08-26T01:42:15.646Z,16.10
2022-08-26T01:44:52.583Z,16.20
2022-08-26T01:47:24.435Z,22.00
2022-08-26T01:49:56.345Z,15.70
2022-08-26T01:52:31.618Z,17.30
2022-08-26T01:55:00.754Z,17.70
2022-08-26T01:57:29.633Z,16.20
2022-08-26T02:00:02.172Z,17.60
2022-08-26T02:02:45.214Z,18.80
2022-08-26T02:05:18.608Z,14.90
2022-08-26T02:07:51.290Z,19.10
2022-08-26T02:10:21.204Z,17.70
2022-08-26T02:12:52.103Z,15.30
2022-08-26T02:15:25.105Z,19.10
2022-08-26T02:18:00.899Z,13.60
2022-08-26T02:20:30.049Z,16.70
2022-08-26T02:23:00.201Z,13.30
2022-08-26T02:28:29.278Z,15.30
2022-08-26T02:31:06.533Z,12.60
2022-08-26T02:33:44.103Z,14.30
2022-08-26T02:36:21.498Z,12.40
2022-08-26T02:38:56.035Z,14.30
2022-08-26T02:41:31.766Z,13.00
2022-08-26T02:44:16.257Z,13.80
2022-08-26T02:46:47.808Z,13.80
2022-08-26T02:49:19.538Z,15.10
2022-08-26T02:51:54.386Z,12.30
2022-08-26T02:54:28.423Z,13.00
2022-08-26T02:57:03.462Z,12.30
2022-08-26T02:59:31.931Z,12.70
2022-08-26T03:02:05.864Z,11.90
2022-08-26T03:04:41.095Z,11.40
2022-08-26T03:07:27.695Z,12.50
2022-08-26T03:09:59.721Z,11.20
2022-08-26T03:12:29.810Z,9.80
2022-08-26T03:15:17.562Z,10.50
2022-08-26T03:17:59.102Z,11.20
2022-08-26T03:20:31.771Z,8.90
2022-08-26T03:23:00.495Z,10.10
2022-08-26T03:25:40.851Z,9.70
2022-08-26T03:28:10.487Z,9.10
2022-08-26T03:30:45.110Z,8.80
2022-08-26T03:33:19.587Z,18.00
2022-08-26T03:35:59.956Z,24.00
2022-08-26T03:38:43.549Z,15.00
2022-08-26T03:41:27.147Z,17.20
2022-08-26T03:44:06.622Z,12.60
2022-08-26T03:46:48.391Z,11.90
2022-08-26T03:49:35.633Z,11.60
2022-08-26T03:52:07.933Z,15.10
2022-08-26T03:54:49.468Z,15.20
2022-08-26T03:57:21.852Z,14.40
2022-08-26T03:59:53.712Z,13.70
2022-08-26T04:02:22.321Z,13.30
2022-08-26T04:04:50.841Z,11.30
2022-08-26T04:07:22.899Z,10.90
2022-08-26T04:09:51.131Z,12.40
2022-08-26T04:17:26.829Z,11.50
2022-08-26T04:19:59.655Z,8.60
2022-08-26T04:22:29.287Z,9.70
2022-08-26T04:24:59.999Z,10.80
2022-08-26T04:27:31.722Z,8.60
2022-08-26T04:30:05.441Z,8.30
2022-08-26T04:32:33.602Z,9.80
2022-08-26T04:35:02.484Z,13.30
2022-08-26T04:37:33.669Z,13.80
2022-08-26T04:40:04.321Z,15.00
2022-08-26T04:42:34.237Z,13.70
2022-08-26T04:45:05.863Z,15.50
2022-08-26T04:47:39.378Z,16.50
2022-08-26T04:50:08.916Z,13.50
2022-08-26T04:52:41.454Z,12.60
2022-08-26T04:55:11.641Z,12.20
2022-08-26T05:00:12.068Z,14.80
2022-08-26T05:02:41.192Z,12.40
2022-08-26T05:05:12.367Z,12.10
2022-08-26T05:07:41.113Z,11.40
2022-08-26T05:10:11.921Z,11.10
2022-08-26T05:12:40.463Z,13.20
2022-08-26T05:17:42.447Z,12.30
2022-08-26T05:20:13.663Z,12.20
2022-08-26T05:22:42.904Z,9.90
2022-08-26T05:25:12.364Z,10.80
2022-08-26T05:27:40.915Z,11.30
2022-08-26T05:30:10.856Z,9.50
2022-08-26T05:32:40.523Z,9.00
2022-08-26T05:35:11.306Z,9.40
2022-08-26T05:37:39.350Z,11.10
2022-08-26T05:40:09.228Z,9.70
2022-08-26T05:42:38.906Z,10.40
2022-08-26T05:45:09.227Z,9.70
2022-08-26T05:47:37.665Z,9.70
2022-08-26T05:50:09.394Z,12.70
2022-08-26T05:52:41.227Z,12.10
2022-08-26T05:55:11.599Z,12.30
2022-08-26T05:57:42.874Z,12.70
2022-08-26T06:00:13.489Z,13.50
2022-08-26T06:02:42.142Z,14.20
2022-08-26T06:05:10.009Z,15.00
2022-08-26T06:07:57.875Z,14.60
2022-08-26T06:10:32.496Z,15.30
2022-08-26T06:13:09.215Z,13.10
2022-08-26T06:15:48.488Z,14.30
2022-08-26T06:18:32.851Z,14.40
2022-08-26T06:21:12.314Z,14.80
2022-08-26T06:23:59.696Z,16.60
2022-08-26T06:26:31.484Z,16.60
2022-08-26T06:29:01.708Z,16.40
2022-08-26T06:31:37.835Z,18.90
2022-08-26T06:34:11.116Z,15.10
2022-08-26T06:36:42.180Z,14.80
2022-08-26T06:39:15.223Z,17.70
2022-08-26T06:41:45.402Z,17.30
2022-08-26T06:44:19.225Z,19.30
2022-08-26T06:46:50.423Z,15.90
2022-08-26T06:49:26.968Z,18.10
2022-08-26T06:52:00.132Z,17.50
2022-08-26T06:54:38.870Z,19.40
2022-08-26T06:57:06.897Z,21.00
2022-08-26T06:59:35.173Z,18.10
2022-08-26T07:02:06.453Z,19.60
2022-08-26T07:04:36.181Z,20.50
2022-08-26T07:07:09.692Z,22.20
2022-08-26T07:09:38.984Z,18.90
2022-08-26T07:12:10.214Z,17.50
2022-08-26T07:14:39.673Z,20.70
2022-08-26T07:17:11.050Z,22.30
2022-08-26T07:19:42.713Z,20.40
2022-08-26T07:22:13.375Z,25.10
2022-08-26T07:24:42.637Z,22.40
2022-08-26T07:27:15.129Z,20.30
2022-08-26T07:29:44.105Z,23.50
2022-08-26T07:32:15.258Z,19.70
2022-08-26T07:34:44.049Z,16.70
2022-08-26T07:37:12.910Z,19.80
2022-08-26T07:42:22.825Z,20.50
2022-08-26T07:44:52.422Z,19.10
2022-08-26T07:47:25.627Z,18.40
2022-08-26T07:49:57.710Z,15.80
2022-08-26T07:52:28.313Z,15.70
2022-08-26T07:54:58.259Z,15.00
2022-08-26T07:57:28.435Z,20.40
2022-08-26T07:59:57.492Z,18.10
2022-08-26T08:02:30.473Z,17.40
2022-08-26T08:04:58.638Z,25.30
2022-08-26T08:07:44.207Z,21.30
2022-08-26T08:10:18.697Z,16.30
2022-08-26T08:12:50.894Z,15.00
2022-08-26T08:15:22.204Z,18.90
2022-08-26T08:17:51.674Z,19.30
2022-08-26T08:20:20.653Z,18.60
2022-08-26T08:22:51.809Z,17.20
2022-08-26T08:25:22.607Z,19.00
2022-08-26T08:27:52.683Z,14.90
2022-08-26T08:30:27.683Z,16.60
2022-08-26T08:32:56.775Z,15.80
2022-08-26T08:35:26.681Z,17.70
2022-08-26T08:37:55.549Z,14.80
2022-08-26T08:40:28.034Z,18.30
2022-08-26T08:43:07.200Z,15.90
2022-08-26T08:45:37.985Z,15.30
2022-08-26T08:48:29.661Z,17.00
2022-08-26T08:51:14.155Z,18.00
2022-08-26T08:53:45.922Z,14.60
2022-08-26T08:56:24.354Z,14.60
2022-08-26T08:59:04.917Z,15.30
2022-08-26T09:01:37.696Z,16.80
2022-08-26T09:04:51.572Z,16.70
2022-08-26T09:07:27.871Z,13.00
2022-08-26T09:10:03.659Z,11.60
2022-08-26T09:12:35.318Z,10.20
2022-08-26T09:15:16.593Z,15.90
2022-08-26T09:18:03.013Z,17.00
2022-08-26T09:20:42.023Z,14.80
2022-08-26T09:23:18.326Z,11.50
2022-08-26T09:25:50.543Z,10.90
2022-08-26T09:28:21.865Z,11.50
2022-08-26T09:31:35.474Z,14.70
2022-08-26T09:34:17.269Z,12.60
2022-08-26T09:36:49.766Z,8.90
2022-08-26T09:39:34.224Z,11.10
2022-08-26T09:42:14.312Z,12.80
2022-08-26T09:45:10.541Z,11.00
2022-08-26T09:47:54.795Z,10.30
2022-08-26T09:50:39.162Z,10.70
2022-08-26T09:53:12.670Z,12.40
2022-08-26T09:55:43.682Z,11.90
2022-08-26T09:58:35.525Z,12.40
2022-08-26T10:01:08.270Z,12.90
2022-08-26T10:03:39.279Z,10.80
2022-08-26T10:06:23.436Z,11.30
2022-08-26T10:08:57.587Z,12.00
2022-08-26T10:11:50.698Z,16.40
2022-08-26T10:14:25.816Z,8.50
2022-08-26T10:17:35.447Z,13.70
2022-08-26T10:20:22.696Z,11.00
2022-08-26T10:23:17.464Z,10.70
2022-08-26T10:26:16.723Z,10.20
2022-08-26T10:29:14.333Z,10.40
2022-08-26T10:32:03.399Z,9.10
2022-08-26T10:34:35.460Z,12.40
2022-08-26T10:37:15.726Z,9.80
2022-08-26T10:40:07.865Z,8.60
2022-08-26T10:42:45.455Z,8.70
2022-08-26T10:47:46.456Z,9.80
2022-08-26T10:50:18.167Z,9.60
2022-08-26T10:53:14.188Z,10.90
2022-08-26T10:56:02.410Z,11.40
2022-08-26T10:58:38.227Z,10.50
2022-08-26T11:01:46.987Z,13.70
2022-08-26T11:04:51.261Z,10.30
2022-08-26T11:07:55.227Z,11.20
2022-08-26T11:10:27.611Z,9.30
2022-08-26T11:13:12.280Z,10.20
2022-08-26T11:15:45.995Z,11.30
2022-08-26T11:18:45.180Z,9.20
2022-08-26T11:22:15.346Z,10.00
2022-08-26T11:25:30.887Z,14.10
2022-08-26T11:28:54.922Z,9.90
2022-08-26T11:31:58.241Z,11.50
2022-08-26T11:35:14.041Z,10.80
2022-08-26T11:41:32.397Z,11.40
2022-08-26T11:44:09.376Z,9.90
2022-08-26T11:46:38.353Z,11.90
2022-08-26T11:49:15.162Z,9.50
2022-08-26T11:52:15.392Z,10.90
2022-08-26T11:55:09.782Z,10.20
2022-08-26T11:57:53.769Z,11.70
2022-08-26T12:00:36.283Z,12.00
2022-08-26T12:03:17.183Z,10.40
2022-08-26T12:06:45.856Z,10.70
2022-08-26T12:09:51.970Z,16.90
2022-08-26T12:12:42.919Z,10.70
2022-08-26T12:15:30.652Z,10.60
2022-08-26T12:20:54.341Z,9.10
2022-08-26T12:23:36.461Z,12.10
2022-08-26T12:26:36.573Z,10.30
2022-08-26T12:29:41.330Z,9.10
2022-08-26T12:32:17.660Z,9.50
2022-08-26T12:34:51.008Z,9.60
2022-08-26T12:37:32.384Z,14.90
2022-08-26T12:40:36.190Z,8.60
2022-08-26T12:43:11.071Z,9.20
2022-08-26T12:45:55.174Z,7.80
2022-08-26T12:48:36.281Z,9.20
2022-08-26T12:51:07.791Z,12.90
2022-08-26T12:53:48.870Z,6.20
2022-08-26T12:56:39.962Z,10.60
2022-08-26T12:59:31.929Z,11.80
2022-08-26T13:02:00.674Z,9.80
2022-08-26T13:04:39.893Z,11.00
2022-08-26T13:07:25.277Z,11.80
2022-08-26T13:10:13.245Z,11.10
2022-08-26T13:12:42.992Z,9.60
2022-08-26T13:15:55.040Z,13.40
2022-08-26T13:18:26.631Z,10.40
2022-08-26T13:20:56.656Z,12.80
2022-08-26T13:23:40.625Z,9.50
2022-08-26T13:26:32.868Z,10.10
2022-08-26T13:29:14.954Z,8.90
2022-08-26T13:31:46.363Z,11.00
2022-08-26T13:34:27.326Z,8.20
2022-08-26T13:36:56.531Z,9.90
2022-08-26T13:39:26.348Z,7.60
2022-08-26T13:41:58.639Z,10.50
2022-08-26T13:44:36.433Z,11.50
2022-08-26T13:47:14.983Z,6.40
2022-08-26T13:49:49.673Z,10.10
2022-08-26T13:52:17.907Z,8.90
2022-08-26T13:55:12.037Z,9.00
2022-08-26T13:57:40.152Z,10.00
2022-08-26T14:00:14.604Z,9.70
2022-08-26T14:02:59.302Z,8.30
2022-08-26T14:05:56.739Z,9.90
2022-08-26T14:08:24.913Z,9.60
2022-08-26T14:10:56.893Z,11.50
2022-08-26T14:13:26.193Z,10.80
2022-08-26T14:15:59.740Z,6.50
2022-08-26T14:18:53.667Z,13.00
2022-08-26T14:25:42.880Z,10.90
2022-08-26T14:28:29.562Z,8.80
2022-08-26T14:31:27.314Z,6.80
2022-08-26T14:34:15.572Z,9.60
2022-08-26T14:37:15.532Z,8.30
2022-08-26T14:43:47.346Z,7.80
2022-08-26T14:47:20.311Z,7.60
2022-08-26T14:54:03.370Z,11.60
2022-08-26T14:57:05.175Z,10.20
2022-08-26T14:59:41.188Z,6.60
2022-08-26T15:02:32.668Z,8.10
2022-08-26T15:05:12.063Z,7.80
2022-08-26T15:07:40.105Z,6.90
2022-08-26T15:10:33.355Z,8.60
2022-08-26T15:13:01.703Z,7.90
2022-08-26T15:15:31.455Z,9.40
2022-08-26T15:18:34.090Z,6.60
2022-08-26T15:21:13.068Z,5.10
2022-08-26T15:24:53.707Z,6.60
2022-08-26T15:28:04.855Z,7.80
2022-08-26T15:30:33.963Z,10.70
2022-08-26T15:33:02.127Z,5.20
2022-08-26T15:35:29.997Z,7.40
2022-08-26T15:38:01.315Z,10.10
2022-08-26T15:40:29.678Z,7.10
2022-08-26T15:43:11.414Z,7.50
2022-08-26T15:45:45.646Z,9.00
2022-08-26T15:48:13.610Z,8.70
2022-08-26T15:50:54.666Z,7.10
2022-08-26T15:53:24.403Z,11.90
2022-08-26T15:55:55.388Z,7.30
2022-08-26T15:58:25.871Z,10.30
2022-08-26T16:00:56.276Z,10.40
2022-08-26T16:03:24.322Z,10.30
2022-08-26T16:05:52.212Z,9.10
2022-08-26T16:08:22.842Z,10.70
2022-08-26T16:10:51.532Z,12.50
2022-08-26T16:13:20.380Z,7.50
2022-08-26T16:15:48.945Z,7.50
2022-08-26T16:18:18.200Z,7.70
2022-08-26T16:20:55.293Z,10.80
2022-08-26T16:23:43.267Z,11.10
2022-08-26T16:26:19.976Z,8.50
2022-08-26T16:33:04.997Z,7.60
2022-08-26T16:35:48.335Z,11.20
2022-08-26T16:38:16.610Z,12.80
2022-08-26T16:40:44.783Z,9.70
2022-08-26T16:43:15.387Z,9.20
2022-08-26T16:45:43.692Z,11.80
2022-08-26T16:48:12.070Z,8.60
2022-08-26T16:50:43.262Z,6.90
2022-08-26T16:55:48.740Z,13.80
2022-08-26T16:58:18.527Z,9.00
2022-08-26T17:00:46.903Z,12.80
2022-08-26T17:03:22.360Z,8.20
2022-08-26T17:06:35.556Z,11.80
2022-08-26T17:12:25.650Z,10.50
2022-08-26T17:15:43.623Z,8.10
2022-08-26T17:18:37.978Z,9.30
2022-08-26T17:21:23.483Z,7.20
2022-08-26T17:23:56.537Z,10.20
2022-08-26T17:26:55.592Z,8.50
2022-08-26T17:29:56.339Z,12.50
2022-08-26T17:33:18.682Z,11.80
2022-08-26T17:36:41.877Z,8.60
2022-08-26T17:39:46.532Z,9.80
2022-08-26T17:42:21.929Z,11.70
2022-08-26T17:49:22.925Z,12.40
2022-08-26T17:52:22.367Z,7.80
2022-08-26T17:55:20.817Z,9.80
2022-08-26T17:58:23.791Z,7.30
2022-08-26T18:00:56.763Z,11.60
2022-08-26T18:03:25.935Z,8.00
2022-08-26T18:06:24.195Z,13.30
2022-08-26T18:09:17.112Z,11.90
2022-08-26T18:11:54.996Z,9.30
2022-08-26T18:14:23.012Z,8.40
2022-08-26T18:17:05.333Z,9.50
2022-08-26T18:20:03.087Z,8.10
2022-08-26T18:23:03.365Z,6.60
2022-08-26T18:28:41.646Z,9.70
2022-08-26T18:31:13.497Z,12.80
2022-08-26T18:33:43.694Z,10.40
2022-08-26T18:36:26.064Z,13.30
2022-08-26T18:39:04.745Z,13.20
2022-08-26T18:42:03.402Z,8.60
2022-08-26T18:44:44.425Z,9.50
2022-08-26T18:47:45.294Z,8.50
2022-08-26T18:50:43.818Z,12.50
2022-08-26T18:53:23.997Z,14.80
2022-08-26T18:56:03.986Z,8.40
2022-08-26T19:01:52.701Z,10.10
2022-08-26T19:04:26.396Z,11.30
2022-08-26T19:07:02.795Z,7.20
2022-08-26T19:09:43.753Z,8.80
2022-08-26T19:12:44.417Z,11.30
2022-08-26T19:15:22.521Z,11.80
2022-08-26T19:18:45.567Z,10.50
2022-08-26T19:21:28.012Z,10.00
2022-08-26T19:24:06.630Z,10.20
2022-08-26T19:27:03.330Z,10.40
2022-08-26T19:29:53.814Z,13.40
2022-08-26T19:32:31.886Z,10.40
2022-08-26T19:35:03.867Z,13.00
2022-08-26T19:37:35.648Z,11.40
2022-08-26T19:40:11.838Z,8.60
2022-08-26T19:42:45.088Z,10.80
2022-08-26T19:45:24.352Z,11.20
2022-08-26T19:48:23.946Z,9.70
2022-08-26T19:51:27.363Z,11.60
2022-08-26T19:54:25.588Z,9.90
2022-08-26T19:57:26.482Z,11.20
2022-08-26T20:03:08.835Z,10.80
2022-08-26T20:06:42.878Z,8.90
2022-08-26T20:10:07.031Z,14.50
2022-08-26T20:13:10.621Z,11.20
2022-08-26T20:16:06.270Z,10.90
2022-08-26T20:18:56.133Z,10.50
2022-08-26T20:21:30.175Z,10.30
2022-08-26T20:24:06.177Z,15.20
2022-08-26T20:30:28.520Z,9.60
2022-08-26T20:33:27.108Z,10.30
2022-08-26T20:36:10.437Z,7.80
2022-08-26T20:39:07.792Z,14.40
2022-08-26T20:41:45.684Z,10.20
2022-08-26T20:44:27.056Z,12.20
2022-08-26T20:46:56.905Z,11.20
2022-08-26T20:49:28.341Z,12.10
2022-08-26T20:51:56.653Z,13.20
2022-08-26T20:54:28.517Z,14.00
2022-08-26T20:56:58.946Z,12.00
2022-08-26T20:59:27.776Z,11.80
2022-08-26T21:04:27.594Z,13.30
2022-08-26T21:06:56.794Z,13.90
2022-08-26T21:09:27.629Z,13.80
2022-08-26T21:11:59.616Z,14.10
2022-08-26T21:14:29.090Z,13.50
2022-08-26T21:17:00.037Z,15.10
2022-08-26T21:19:28.327Z,13.80
2022-08-26T21:21:58.671Z,16.90
2022-08-26T21:24:27.965Z,15.10
2022-08-26T21:29:27.633Z,16.70
2022-08-26T21:31:56.437Z,16.70
2022-08-26T21:34:25.340Z,17.60
2022-08-26T21:39:22.675Z,13.00
2022-08-26T21:41:59.065Z,13.90
2022-08-26T21:44:27.729Z,15.70
2022-08-26T21:46:58.488Z,15.20
2022-08-26T21:49:27.588Z,11.00
2022-08-26T21:51:56.876Z,15.50
2022-08-26T21:54:24.854Z,14.00
2022-08-26T21:56:54.784Z,13.90
2022-08-26T21:59:23.180Z,13.50
2022-08-26T22:01:57.090Z,13.70
2022-08-26T22:04:25.840Z,11.90
2022-08-26T22:06:59.832Z,10.40
2022-08-26T22:09:31.203Z,13.70
2022-08-26T22:12:02.552Z,13.30
2022-08-26T22:14:31.650Z,12.80
2022-08-26T22:17:00.102Z,11.40
2022-08-26T22:19:45.750Z,14.50
2022-08-26T22:22:36.984Z,12.80
2022-08-26T22:25:20.130Z,18.10
2022-08-26T22:27:51.871Z,10.80
2022-08-26T22:30:22.646Z,13.40
2022-08-26T22:32:51.182Z,11.20
2022-08-26T22:35:28.965Z,13.20
2022-08-26T22:38:00.046Z,11.10
2022-08-26T22:40:28.895Z,11.20
2022-08-26T22:45:32.513Z,14.50
2022-08-26T22:48:04.802Z,10.80
2022-08-26T22:50:34.015Z,14.20
2022-08-26T22:53:03.266Z,14.10
2022-08-26T22:55:37.596Z,10.90
2022-08-26T22:58:06.566Z,15.20
2022-08-26T23:03:12.885Z,11.90
2022-08-26T23:05:45.266Z,13.70
2022-08-26T23:08:15.555Z,14.10
2022-08-26T23:10:46.890Z,14.00
2022-08-26T23:13:18.722Z,13.90
2022-08-26T23:15:47.451Z,14.60
2022-08-26T23:18:19.408Z,13.80
2022-08-26T23:20:49.156Z,14.40
2022-08-26T23:23:24.532Z,13.50
2022-08-26T23:25:54.808Z,14.10
2022-08-26T23:28:23.922Z,15.60
2022-08-26T23:30:58.298Z,14.00
2022-08-26T23:33:46.789Z,13.90
2022-08-26T23:36:17.859Z,13.70
2022-08-26T23:38:52.741Z,12.60
2022-08-26T23:41:26.162Z,11.50
2022-08-26T23:44:03.587Z,12.30
2022-08-26T23:46:39.643Z,12.30
2022-08-26T23:49:10.926Z,16.20
2022-08-26T23:51:58.530Z,13.80
2022-08-26T23:54:34.203Z,16.90
2022-08-26T23:57:13.125Z,14.30
2022-08-26T23:59:42.572Z,15.70
